sensor_id;sensor_type;location;lat;lon;timestamp;pressure;altitude;pressure_sealevel;temperature;humidity
49827;BME280;35715;51.570;6.036;2023-03-23T00:03:35;100187.34;;;12.55;91.22
49827;BME280;35715;51.570;6.036;2023-03-23T00:06:01;100183.91;;;12.56;91.31
49827;BME280;35715;51.570;6.036;2023-03-23T00:08:32;100181.41;;;12.58;90.99
49827;BME280;35715;51.570;6.036;2023-03-23T00:13:27;100179.72;;;12.58;90.82
49827;BME280;35715;51.570;6.036;2023-03-23T00:15:53;100168.53;;;12.59;90.70
49827;BME280;35715;51.570;6.036;2023-03-23T00:18:19;100180.53;;;12.57;90.79
49827;BME280;35715;51.570;6.036;2023-03-23T00:20:58;100183.91;;;12.56;90.80
49827;BME280;35715;51.570;6.036;2023-03-23T00:23:24;100187.34;;;12.55;91.02
49827;BME280;35715;51.570;6.036;2023-03-23T00:25:54;100175.50;;;12.60;90.60
49827;BME280;35715;51.570;6.036;2023-03-23T00:28:23;100156.72;;;12.65;90.50
49827;BME280;35715;51.570;6.036;2023-03-23T00:30:54;100167.72;;;12.60;90.44
49827;BME280;35715;51.570;6.036;2023-03-23T00:33:21;100174.03;;;12.66;90.49
49827;BME280;35715;51.570;6.036;2023-03-23T00:35:47;100170.63;;;12.67;90.39
49827;BME280;35715;51.570;6.036;2023-03-23T00:38:13;100166.63;;;12.73;90.35
49827;BME280;35715;51.570;6.036;2023-03-23T00:40:46;100171.75;;;12.72;90.54
49827;BME280;35715;51.570;6.036;2023-03-23T00:43:13;100178.75;;;12.74;90.23
49827;BME280;35715;51.570;6.036;2023-03-23T00:45:39;100164.94;;;12.74;90.33
49827;BME280;35715;51.570;6.036;2023-03-23T00:48:04;100165.88;;;12.76;89.84
49827;BME280;35715;51.570;6.036;2023-03-23T00:50:36;100157.22;;;12.75;89.94
49827;BME280;35715;51.570;6.036;2023-03-23T00:53:01;100151.19;;;12.75;89.52
49827;BME280;35715;51.570;6.036;2023-03-23T00:55:26;100158.13;;;12.76;89.48
49827;BME280;35715;51.570;6.036;2023-03-23T00:57:52;100165.00;;;12.75;89.14
49827;BME280;35715;51.570;6.036;2023-03-23T01:00:22;100159.81;;;12.75;89.55
49827;BME280;35715;51.570;6.036;2023-03-23T01:02:48;100153.69;;;12.73;89.83
49827;BME280;35715;51.570;6.036;2023-03-23T01:05:16;100150.19;;;12.73;89.37
49827;BME280;35715;51.570;6.036;2023-03-23T01:07:41;100152.28;;;12.80;89.18
49827;BME280;35715;51.570;6.036;2023-03-23T01:10:09;100149.69;;;12.80;89.40
49827;BME280;35715;51.570;6.036;2023-03-23T01:12:38;100146.16;;;12.78;89.30
49827;BME280;35715;51.570;6.036;2023-03-23T01:15:03;100148.94;;;12.83;89.22
49827;BME280;35715;51.570;6.036;2023-03-23T01:17:28;100144.66;;;12.83;89.08
49827;BME280;35715;51.570;6.036;2023-03-23T01:19:54;100148.03;;;12.82;89.10
49827;BME280;35715;51.570;6.036;2023-03-23T01:22:21;100150.72;;;12.84;88.90
49827;BME280;35715;51.570;6.036;2023-03-23T01:24:46;100159.38;;;12.84;89.19
49827;BME280;35715;51.570;6.036;2023-03-23T01:27:11;100160.34;;;12.86;88.92
49827;BME280;35715;51.570;6.036;2023-03-23T01:29:39;100155.97;;;12.85;89.10
49827;BME280;35715;51.570;6.036;2023-03-23T01:32:04;100150.03;;;12.88;88.92
49827;BME280;35715;51.570;6.036;2023-03-23T01:34:29;100144.88;;;12.88;88.76
49827;BME280;35715;51.570;6.036;2023-03-23T01:36:56;100144.94;;;12.89;88.90
49827;BME280;35715;51.570;6.036;2023-03-23T01:39:21;100127.63;;;12.88;88.89
49827;BME280;35715;51.570;6.036;2023-03-23T01:41:46;100116.59;;;12.92;88.68
49827;BME280;35715;51.570;6.036;2023-03-23T01:46:43;100104.03;;;12.82;89.85
49827;BME280;35715;51.570;6.036;2023-03-23T01:49:13;100104.09;;;12.84;89.88
49827;BME280;35715;51.570;6.036;2023-03-23T01:51:47;100100.56;;;12.82;89.61
49827;BME280;35715;51.570;6.036;2023-03-23T01:54:14;100094.97;;;12.72;90.54
49827;BME280;35715;51.570;6.036;2023-03-23T01:56:48;100082.91;;;12.73;90.06
49827;BME280;35715;51.570;6.036;2023-03-23T01:59:15;100085.78;;;12.79;89.58
49827;BME280;35715;51.570;6.036;2023-03-23T02:01:41;100083.88;;;12.75;90.01
49827;BME280;35715;51.570;6.036;2023-03-23T02:04:10;100117.75;;;12.80;89.81
49827;BME280;35715;51.570;6.036;2023-03-23T02:06:36;100110.72;;;12.77;89.99
49827;BME280;35715;51.570;6.036;2023-03-23T02:09:01;100100.94;;;12.71;90.67
49827;BME280;35715;51.570;6.036;2023-03-23T02:11:29;100109.56;;;12.70;90.69
49827;BME280;35715;51.570;6.036;2023-03-23T02:13:55;100092.31;;;12.71;90.83
49827;BME280;35715;51.570;6.036;2023-03-23T02:19:12;100093.25;;;12.73;90.54
49827;BME280;35715;51.570;6.036;2023-03-23T02:26:50;100064.84;;;12.74;90.24
49827;BME280;35715;51.570;6.036;2023-03-23T02:34:36;100053.56;;;12.72;90.26
49827;BME280;35715;51.570;6.036;2023-03-23T02:37:05;100056.94;;;12.71;89.91
49827;BME280;35715;51.570;6.036;2023-03-23T02:39:43;100060.66;;;12.76;89.54
49827;BME280;35715;51.570;6.036;2023-03-23T02:42:11;100069.97;;;12.73;89.62
49827;BME280;35715;51.570;6.036;2023-03-23T02:44:37;100055.53;;;12.78;89.47
49827;BME280;35715;51.570;6.036;2023-03-23T02:47:04;100055.34;;;12.73;89.90
49827;BME280;35715;51.570;6.036;2023-03-23T02:49:32;100065.69;;;12.73;89.44
49827;BME280;35715;51.570;6.036;2023-03-23T02:52:02;100056.28;;;12.75;89.87
49827;BME280;35715;51.570;6.036;2023-03-23T02:54:29;100053.03;;;12.80;89.34
49827;BME280;35715;51.570;6.036;2023-03-23T02:56:54;100053.97;;;12.82;89.19
49827;BME280;35715;51.570;6.036;2023-03-23T02:59:22;100044.50;;;12.82;89.28
49827;BME280;35715;51.570;6.036;2023-03-23T03:01:51;100042.81;;;12.83;89.37
49827;BME280;35715;51.570;6.036;2023-03-23T03:04:18;100040.00;;;12.78;89.60
49827;BME280;35715;51.570;6.036;2023-03-23T03:06:52;100026.22;;;12.79;89.59
49827;BME280;35715;51.570;6.036;2023-03-23T03:09:26;100037.44;;;12.78;90.00
49827;BME280;35715;51.570;6.036;2023-03-23T03:11:55;100054.78;;;12.81;89.99
49827;BME280;35715;51.570;6.036;2023-03-23T03:14:24;100048.72;;;12.80;90.11
49827;BME280;35715;51.570;6.036;2023-03-23T03:17:00;100048.72;;;12.80;90.31
49827;BME280;35715;51.570;6.036;2023-03-23T03:19:27;100047.66;;;12.75;90.61
49827;BME280;35715;51.570;6.036;2023-03-23T03:21:54;100046.81;;;12.76;90.75
49827;BME280;35715;51.570;6.036;2023-03-23T03:24:22;100065.00;;;12.77;91.06
49827;BME280;35715;51.570;6.036;2023-03-23T03:26:50;100058.94;;;12.77;91.06
49827;BME280;35715;51.570;6.036;2023-03-23T03:29:17;100050.38;;;12.78;91.00
49827;BME280;35715;51.570;6.036;2023-03-23T03:31:43;100054.56;;;12.76;91.08
49827;BME280;35715;51.570;6.036;2023-03-23T03:34:10;100053.91;;;12.80;90.88
49827;BME280;35715;51.570;6.036;2023-03-23T03:36:36;100047.00;;;12.81;91.02
49827;BME280;35715;51.570;6.036;2023-03-23T03:39:06;100047.06;;;12.82;90.65
49827;BME280;35715;51.570;6.036;2023-03-23T03:41:36;100054.03;;;12.83;90.52
49827;BME280;35715;51.570;6.036;2023-03-23T03:44:03;100046.28;;;12.83;90.74
49827;BME280;35715;51.570;6.036;2023-03-23T03:46:28;100058.22;;;12.80;91.13
49827;BME280;35715;51.570;6.036;2023-03-23T03:48:56;100055.91;;;12.86;90.48
49827;BME280;35715;51.570;6.036;2023-03-23T03:51:23;100068.00;;;12.87;90.47
49827;BME280;35715;51.570;6.036;2023-03-23T03:53:49;100057.28;;;12.79;90.89
49827;BME280;35715;51.570;6.036;2023-03-23T03:56:14;100056.34;;;12.77;91.34
49827;BME280;35715;51.570;6.036;2023-03-23T03:58:40;100054.84;;;12.82;90.78
49827;BME280;35715;51.570;6.036;2023-03-23T04:01:12;100057.56;;;12.85;90.41
49827;BME280;35715;51.570;6.036;2023-03-23T04:03:38;100056.63;;;12.83;90.63
49827;BME280;35715;51.570;6.036;2023-03-23T04:06:04;100052.31;;;12.84;90.60
49827;BME280;35715;51.570;6.036;2023-03-23T04:08:30;100053.91;;;12.80;90.64
49827;BME280;35715;51.570;6.036;2023-03-23T04:11:00;100046.28;;;12.83;90.43
49827;BME280;35715;51.570;6.036;2023-03-23T04:13:25;100049.75;;;12.84;90.12
49827;BME280;35715;51.570;6.036;2023-03-23T04:15:50;100059.88;;;12.79;90.17
49827;BME280;35715;51.570;6.036;2023-03-23T04:18:16;100053.31;;;12.86;89.90
49827;BME280;35715;51.570;6.036;2023-03-23T04:20:45;100057.50;;;12.84;89.89
49827;BME280;35715;51.570;6.036;2023-03-23T04:23:15;100068.00;;;12.87;89.79
49827;BME280;35715;51.570;6.036;2023-03-23T04:25:45;100068.91;;;12.87;89.64
49827;BME280;35715;51.570;6.036;2023-03-23T04:28:13;100071.28;;;12.83;89.91
49827;BME280;35715;51.570;6.036;2023-03-23T04:30:50;100075.50;;;12.81;89.49
49827;BME280;35715;51.570;6.036;2023-03-23T04:33:27;100078.97;;;12.81;89.67
49827;BME280;35715;51.570;6.036;2023-03-23T04:35:54;100080.81;;;12.84;88.90
49827;BME280;35715;51.570;6.036;2023-03-23T04:38:20;100092.88;;;12.83;88.58
49827;BME280;35715;51.570;6.036;2023-03-23T04:43:16;100079.94;;;12.83;88.09
49827;BME280;35715;51.570;6.036;2023-03-23T04:45:41;100081.50;;;12.80;87.62
49827;BME280;35715;51.570;6.036;2023-03-23T04:48:10;100078.06;;;12.81;87.13
49827;BME280;35715;51.570;6.036;2023-03-23T04:50:37;100087.75;;;12.85;87.34
49827;BME280;35715;51.570;6.036;2023-03-23T04:53:03;100096.13;;;12.79;85.99
49827;BME280;35715;51.570;6.036;2023-03-23T04:55:32;100097.97;;;12.82;86.01
49827;BME280;35715;51.570;6.036;2023-03-23T04:58:01;100091.16;;;12.84;85.51
49827;BME280;35715;51.570;6.036;2023-03-23T05:00:33;100104.19;;;12.85;85.61
49827;BME280;35715;51.570;6.036;2023-03-23T05:02:58;100100.03;;;12.89;85.92
49827;BME280;35715;51.570;6.036;2023-03-23T05:05:26;100095.53;;;12.85;85.28
49827;BME280;35715;51.570;6.036;2023-03-23T05:07:52;100096.56;;;12.88;85.54
49827;BME280;35715;51.570;6.036;2023-03-23T05:10:18;100098.41;;;12.91;85.22
49827;BME280;35715;51.570;6.036;2023-03-23T05:12:43;100094.13;;;12.91;85.44
49827;BME280;35715;51.570;6.036;2023-03-23T05:15:09;100096.72;;;12.91;85.20
49827;BME280;35715;51.570;6.036;2023-03-23T05:17:35;100100.03;;;12.89;84.96
49827;BME280;35715;51.570;6.036;2023-03-23T05:20:03;100100.19;;;12.92;85.18
49827;BME280;35715;51.570;6.036;2023-03-23T05:22:30;100097.38;;;12.87;85.08
49827;BME280;35715;51.570;6.036;2023-03-23T05:24:57;100106.25;;;12.92;84.88
49827;BME280;35715;51.570;6.036;2023-03-23T05:27:23;100107.97;;;12.92;84.97
49827;BME280;35715;51.570;6.036;2023-03-23T05:29:56;100105.28;;;12.90;84.70
49827;BME280;35715;51.570;6.036;2023-03-23T05:32:23;100092.28;;;12.89;84.72
49827;BME280;35715;51.570;6.036;2023-03-23T05:34:53;100102.72;;;12.90;84.43
49827;BME280;35715;51.570;6.036;2023-03-23T05:37:18;100105.28;;;12.90;84.29
49827;BME280;35715;51.570;6.036;2023-03-23T05:39:48;100104.63;;;12.94;84.22
49827;BME280;35715;51.570;6.036;2023-03-23T05:42:13;100104.50;;;12.91;84.03
49827;BME280;35715;51.570;6.036;2023-03-23T05:44:38;100106.97;;;12.90;84.35
49827;BME280;35715;51.570;6.036;2023-03-23T05:47:04;100108.84;;;12.92;84.14
49827;BME280;35715;51.570;6.036;2023-03-23T05:49:29;100107.88;;;12.90;84.11
49827;BME280;35715;51.570;6.036;2023-03-23T05:51:54;100110.34;;;12.87;84.32
49827;BME280;35715;51.570;6.036;2023-03-23T05:54:20;100116.31;;;12.86;84.61
49827;BME280;35715;51.570;6.036;2023-03-23T05:56:45;100112.78;;;12.84;85.49
49827;BME280;35715;51.570;6.036;2023-03-23T05:59:10;100117.69;;;12.78;86.74
49827;BME280;35715;51.570;6.036;2023-03-23T06:01:37;100107.38;;;12.80;87.62
49827;BME280;35715;51.570;6.036;2023-03-23T06:04:03;100115.88;;;12.77;88.65
49827;BME280;35715;51.570;6.036;2023-03-23T06:06:29;100115.69;;;12.72;90.00
49827;BME280;35715;51.570;6.036;2023-03-23T06:08:55;100105.25;;;12.71;90.25
49827;BME280;35715;51.570;6.036;2023-03-23T06:11:28;100112.22;;;12.72;90.27
49827;BME280;35715;51.570;6.036;2023-03-23T06:13:53;100105.97;;;12.68;90.91
49827;BME280;35715;51.570;6.036;2023-03-23T06:16:19;100105.84;;;12.65;90.39
49827;BME280;35715;51.570;6.036;2023-03-23T06:18:45;100116.03;;;12.62;90.44
49827;BME280;35715;51.570;6.036;2023-03-23T06:21:11;100116.69;;;12.58;90.35
49827;BME280;35715;51.570;6.036;2023-03-23T06:23:37;100117.09;;;12.66;89.66
49827;BME280;35715;51.570;6.036;2023-03-23T06:26:04;100119.13;;;12.73;89.02
49827;BME280;35715;51.570;6.036;2023-03-23T06:28:30;100125.97;;;12.71;88.95
49827;BME280;35715;51.570;6.036;2023-03-23T06:31:01;100135.72;;;12.76;88.18
49827;BME280;35715;51.570;6.036;2023-03-23T06:33:26;100133.94;;;12.75;87.77
49827;BME280;35715;51.570;6.036;2023-03-23T06:35:52;100137.13;;;12.70;87.46
49827;BME280;35715;51.570;6.036;2023-03-23T06:38:17;100140.63;;;12.70;87.38
49827;BME280;35715;51.570;6.036;2023-03-23T06:40:54;100148.31;;;12.69;87.14
49827;BME280;35715;51.570;6.036;2023-03-23T06:43:20;100155.59;;;12.77;86.59
49827;BME280;35715;51.570;6.036;2023-03-23T06:45:46;100163.66;;;12.84;86.51
49827;BME280;35715;51.570;6.036;2023-03-23T06:48:11;100167.38;;;12.89;86.63
49827;BME280;35715;51.570;6.036;2023-03-23T06:50:38;100165.66;;;12.89;86.12
49827;BME280;35715;51.570;6.036;2023-03-23T06:53:03;100161.19;;;12.87;85.89
49827;BME280;35715;51.570;6.036;2023-03-23T06:55:28;100168.38;;;12.92;85.20
49827;BME280;35715;51.570;6.036;2023-03-23T06:57:54;100165.88;;;12.94;85.16
49827;BME280;35715;51.570;6.036;2023-03-23T07:00:19;100171.81;;;12.91;83.86
49827;BME280;35715;51.570;6.036;2023-03-23T07:02:45;100166.44;;;13.06;84.41
49827;BME280;35715;51.570;6.036;2023-03-23T07:05:12;100176.94;;;13.09;84.16
49827;BME280;35715;51.570;6.036;2023-03-23T07:07:37;100162.97;;;13.06;83.19
49827;BME280;35715;51.570;6.036;2023-03-23T07:10:03;100177.84;;;13.10;83.61
49827;BME280;35715;51.570;6.036;2023-03-23T07:12:29;100166.78;;;12.94;82.97
49827;BME280;35715;51.570;6.036;2023-03-23T07:14:54;100176.38;;;12.97;83.11
49827;BME280;35715;51.570;6.036;2023-03-23T07:17:34;100180.00;;;13.01;82.90
49827;BME280;35715;51.570;6.036;2023-03-23T07:19:59;100173.03;;;13.00;83.05
49827;BME280;35715;51.570;6.036;2023-03-23T07:22:24;100169.78;;;13.04;83.02
49827;BME280;35715;51.570;6.036;2023-03-23T07:24:50;100171.63;;;13.06;82.92
49827;BME280;35715;51.570;6.036;2023-03-23T07:27:15;100177.56;;;13.04;83.18
49827;BME280;35715;51.570;6.036;2023-03-23T07:29:42;100180.00;;;13.01;84.42
49827;BME280;35715;51.570;6.036;2023-03-23T07:32:09;100181.84;;;13.03;85.05
49827;BME280;35715;51.570;6.036;2023-03-23T07:34:35;100186.00;;;13.00;85.14
49827;BME280;35715;51.570;6.036;2023-03-23T07:37:02;100188.44;;;12.96;85.96
49827;BME280;35715;51.570;6.036;2023-03-23T07:39:27;100186.56;;;12.94;86.36
49827;BME280;35715;51.570;6.036;2023-03-23T07:41:52;100180.31;;;12.89;85.70
49827;BME280;35715;51.570;6.036;2023-03-23T07:44:17;100170.91;;;12.91;85.77
49827;BME280;35715;51.570;6.036;2023-03-23T07:46:43;100170.03;;;12.90;85.59
49827;BME280;35715;51.570;6.036;2023-03-23T07:49:08;100178.31;;;12.83;84.75
49827;BME280;35715;51.570;6.036;2023-03-23T07:51:36;100172.47;;;12.87;85.37
49827;BME280;35715;51.570;6.036;2023-03-23T07:54:03;100182.59;;;13.01;85.47
49827;BME280;35715;51.570;6.036;2023-03-23T07:56:29;100184.41;;;13.03;84.92
49827;BME280;35715;51.570;6.036;2023-03-23T07:58:55;100176.94;;;13.09;84.69
49827;BME280;35715;51.570;6.036;2023-03-23T08:01:25;100185.09;;;13.17;83.83
49827;BME280;35715;51.570;6.036;2023-03-23T08:03:50;100187.75;;;13.19;84.00
49827;BME280;35715;51.570;6.036;2023-03-23T08:06:17;100191.28;;;13.21;84.12
49827;BME280;35715;51.570;6.036;2023-03-23T08:08:42;100205.97;;;13.20;84.15
49827;BME280;35715;51.570;6.036;2023-03-23T08:11:07;100212.59;;;13.15;85.08
49827;BME280;35715;51.570;6.036;2023-03-23T08:13:32;100215.56;;;13.05;87.85
49827;BME280;35715;51.570;6.036;2023-03-23T08:16:01;100251.38;;;12.95;89.10
49827;BME280;35715;51.570;6.036;2023-03-23T08:18:29;100282.81;;;12.67;91.78
49827;BME280;35715;51.570;6.036;2023-03-23T08:23:23;100273.50;;;11.87;91.79
49827;BME280;35715;51.570;6.036;2023-03-23T08:25:48;100264.28;;;11.76;93.42
49827;BME280;35715;51.570;6.036;2023-03-23T08:28:14;100265.50;;;11.66;92.35
49827;BME280;35715;51.570;6.036;2023-03-23T08:30:40;100260.41;;;11.67;93.00
49827;BME280;35715;51.570;6.036;2023-03-23T08:33:05;100265.56;;;11.67;92.11
49827;BME280;35715;51.570;6.036;2023-03-23T08:35:31;100269.75;;;11.65;92.95
49827;BME280;35715;51.570;6.036;2023-03-23T08:37:56;100287.75;;;11.64;91.79
49827;BME280;35715;51.570;6.036;2023-03-23T08:40:24;100290.81;;;11.57;91.65
49827;BME280;35715;51.570;6.036;2023-03-23T08:42:50;100282.16;;;11.56;91.73
49827;BME280;35715;51.570;6.036;2023-03-23T08:45:17;100278.06;;;11.60;91.78
49827;BME280;35715;51.570;6.036;2023-03-23T08:47:42;100272.25;;;11.64;90.93
49827;BME280;35715;51.570;6.036;2023-03-23T08:50:10;100285.25;;;11.65;90.63
49827;BME280;35715;51.570;6.036;2023-03-23T08:52:36;100278.91;;;11.75;90.57
49827;BME280;35715;51.570;6.036;2023-03-23T08:55:02;100278.31;;;11.81;90.44
49827;BME280;35715;51.570;6.036;2023-03-23T08:57:28;100284.16;;;11.77;89.23
49827;BME280;35715;51.570;6.036;2023-03-23T08:59:56;100279.56;;;11.87;89.49
49827;BME280;35715;51.570;6.036;2023-03-23T09:02:26;100291.13;;;11.94;88.88
49827;BME280;35715;51.570;6.036;2023-03-23T09:04:52;100294.63;;;11.95;88.49
49827;BME280;35715;51.570;6.036;2023-03-23T09:07:17;100292.03;;;11.95;88.58
49827;BME280;35715;51.570;6.036;2023-03-23T09:09:45;100302.56;;;11.83;86.16
49827;BME280;35715;51.570;6.036;2023-03-23T09:12:10;100300.41;;;11.90;87.52
49827;BME280;35715;51.570;6.036;2023-03-23T09:14:36;100300.91;;;12.00;87.05
49827;BME280;35715;51.570;6.036;2023-03-23T09:17:02;100312.69;;;12.11;87.41
49827;BME280;35715;51.570;6.036;2023-03-23T09:19:28;100302.94;;;12.05;85.94
49827;BME280;35715;51.570;6.036;2023-03-23T09:21:53;100303.03;;;12.07;87.00
49827;BME280;35715;51.570;6.036;2023-03-23T09:24:19;100295.75;;;12.33;87.64
49827;BME280;35715;51.570;6.036;2023-03-23T09:26:44;100290.69;;;12.52;87.34
49827;BME280;35715;51.570;6.036;2023-03-23T09:29:10;100286.53;;;12.90;86.60
49827;BME280;35715;51.570;6.036;2023-03-23T09:34:27;100275.09;;;13.39;83.41
49827;BME280;35715;51.570;6.036;2023-03-23T09:36:54;100291.50;;;13.22;80.76
49827;BME280;35715;51.570;6.036;2023-03-23T09:39:19;100292.13;;;13.34;82.53
49827;BME280;35715;51.570;6.036;2023-03-23T09:44:16;100296.41;;;13.34;80.99
49827;BME280;35715;51.570;6.036;2023-03-23T09:52:05;100308.53;;;13.17;83.10
49827;BME280;35715;51.570;6.036;2023-03-23T09:54:34;100319.69;;;12.98;83.54
49827;BME280;35715;51.570;6.036;2023-03-23T09:57:01;100322.88;;;12.92;85.34
49827;BME280;35715;51.570;6.036;2023-03-23T10:02:43;100322.22;;;12.62;87.28
49827;BME280;35715;51.570;6.036;2023-03-23T10:08:13;100311.50;;;12.37;87.54
49827;BME280;35715;51.570;6.036;2023-03-23T10:11:01;100307.03;;;12.35;88.54
49827;BME280;35715;51.570;6.036;2023-03-23T10:13:53;100304.44;;;12.35;88.10
49827;BME280;35715;51.570;6.036;2023-03-23T10:16:25;100300.03;;;13.19;88.83
49827;BME280;35715;51.570;6.036;2023-03-23T10:19:08;100293.03;;;15.57;80.80
49827;BME280;35715;51.570;6.036;2023-03-23T10:21:47;100301.00;;;17.36;76.57
49827;BME280;35715;51.570;6.036;2023-03-23T10:24:16;100300.31;;;18.63;66.86
49827;BME280;35715;51.570;6.036;2023-03-23T10:26:48;100303.84;;;19.73;64.83
49827;BME280;35715;51.570;6.036;2023-03-23T10:31:47;100302.59;;;21.43;60.48
49827;BME280;35715;51.570;6.036;2023-03-23T10:34:22;100299.28;;;21.55;58.22
49827;BME280;35715;51.570;6.036;2023-03-23T10:36:59;100313.09;;;22.06;52.03
49827;BME280;35715;51.570;6.036;2023-03-23T10:39:27;100320.31;;;22.23;50.46
49827;BME280;35715;51.570;6.036;2023-03-23T10:41:54;100306.03;;;22.80;51.78
49827;BME280;35715;51.570;6.036;2023-03-23T10:44:20;100306.16;;;22.96;50.81
49827;BME280;35715;51.570;6.036;2023-03-23T10:49:19;100315.25;;;23.36;47.81
49827;BME280;35715;51.570;6.036;2023-03-23T10:51:47;100331.38;;;21.97;50.46
49827;BME280;35715;51.570;6.036;2023-03-23T10:54:24;100330.13;;;20.19;51.85
49827;BME280;35715;51.570;6.036;2023-03-23T10:56:50;100337.25;;;19.10;53.74
49827;BME280;35715;51.570;6.036;2023-03-23T10:59:19;100330.06;;;18.68;58.04
49827;BME280;35715;51.570;6.036;2023-03-23T11:01:47;100327.22;;;18.27;58.93
49827;BME280;35715;51.570;6.036;2023-03-23T11:04:13;100327.16;;;19.24;57.28
49827;BME280;35715;51.570;6.036;2023-03-23T11:06:43;100318.22;;;20.33;54.76
49827;BME280;35715;51.570;6.036;2023-03-23T11:09:11;100309.19;;;21.15;51.73
49827;BME280;35715;51.570;6.036;2023-03-23T11:11:49;100315.97;;;21.59;49.26
49827;BME280;35715;51.570;6.036;2023-03-23T11:14:19;100313.28;;;21.56;48.72
49827;BME280;35715;51.570;6.036;2023-03-23T11:16:52;100306.19;;;21.49;49.25
49827;BME280;35715;51.570;6.036;2023-03-23T11:19:23;100309.03;;;21.62;49.78
49827;BME280;35715;51.570;6.036;2023-03-23T11:21:50;100314.38;;;21.69;49.80
49827;BME280;35715;51.570;6.036;2023-03-23T11:24:16;100310.84;;;21.67;50.11
49827;BME280;35715;51.570;6.036;2023-03-23T11:26:43;100314.19;;;21.03;50.36
49827;BME280;35715;51.570;6.036;2023-03-23T11:29:16;100320.81;;;20.33;54.21
49827;BME280;35715;51.570;6.036;2023-03-23T11:31:44;100325.09;;;20.30;54.69
49827;BME280;35715;51.570;6.036;2023-03-23T11:36:38;100332.75;;;19.40;56.20
49827;BME280;35715;51.570;6.036;2023-03-23T11:39:19;100323.47;;;19.54;56.59
49827;BME280;35715;51.570;6.036;2023-03-23T11:41:47;100327.81;;;19.52;56.08
49827;BME280;35715;51.570;6.036;2023-03-23T11:44:13;100331.59;;;19.28;58.35
49827;BME280;35715;51.570;6.036;2023-03-23T11:46:55;100335.84;;;19.61;57.55
49827;BME280;35715;51.570;6.036;2023-03-23T11:52:24;100336.56;;;19.92;53.46
49827;BME280;35715;51.570;6.036;2023-03-23T11:54:57;100335.28;;;19.35;55.12
49827;BME280;35715;51.570;6.036;2023-03-23T11:57:27;100356.97;;;18.96;56.81
49827;BME280;35715;51.570;6.036;2023-03-23T11:59:55;100342.00;;;18.58;56.37
49827;BME280;35715;51.570;6.036;2023-03-23T12:07:41;100347.44;;;18.34;58.94
49827;BME280;35715;51.570;6.036;2023-03-23T12:10:22;100349.63;;;18.83;57.88
49827;BME280;35715;51.570;6.036;2023-03-23T12:18:18;100332.66;;;20.60;54.17
49827;BME280;35715;51.570;6.036;2023-03-23T12:52:41;100290.31;;;20.84;52.16
49827;BME280;35715;51.570;6.036;2023-03-23T12:55:16;100288.53;;;20.82;52.99
49827;BME280;35715;51.570;6.036;2023-03-23T13:03:12;100279.19;;;20.03;52.65
49827;BME280;35715;51.570;6.036;2023-03-23T13:05:44;100270.34;;;19.98;54.16
49827;BME280;35715;51.570;6.036;2023-03-23T13:08:12;100275.13;;;19.76;53.75
49827;BME280;35715;51.570;6.036;2023-03-23T13:13:20;100286.66;;;19.84;54.08
49827;BME280;35715;51.570;6.036;2023-03-23T13:15:51;100287.41;;;19.77;54.79
49827;BME280;35715;51.570;6.036;2023-03-23T13:18:27;100291.44;;;19.64;55.52
49827;BME280;35715;51.570;6.036;2023-03-23T13:20:59;100298.94;;;19.49;55.39
49827;BME280;35715;51.570;6.036;2023-03-23T13:23:39;100299.03;;;19.52;56.31
49827;BME280;35715;51.570;6.036;2023-03-23T13:26:10;100295.66;;;19.20;55.50
49827;BME280;35715;51.570;6.036;2023-03-23T13:29:19;100281.31;;;19.02;53.04
49827;BME280;35715;51.570;6.036;2023-03-23T13:33:58;100279.25;;;18.90;53.81
49827;BME280;35715;51.570;6.036;2023-03-23T13:36:28;100273.41;;;19.01;56.30
49827;BME280;35715;51.570;6.036;2023-03-23T13:38:54;100298.47;;;18.92;55.39
49827;BME280;35715;51.570;6.036;2023-03-23T13:41:28;100288.50;;;19.11;56.00
49827;BME280;35715;51.570;6.036;2023-03-23T13:44:04;100290.81;;;18.99;54.95
49827;BME280;35715;51.570;6.036;2023-03-23T13:46:30;100284.38;;;18.86;54.51
49827;BME280;35715;51.570;6.036;2023-03-23T13:49:03;100274.97;;;18.94;54.16
49827;BME280;35715;51.570;6.036;2023-03-23T13:54:32;100269.28;;;19.10;54.24
49827;BME280;35715;51.570;6.036;2023-03-23T13:57:18;100269.13;;;19.04;54.59
49827;BME280;35715;51.570;6.036;2023-03-23T13:59:59;100267.03;;;18.89;56.31
49827;BME280;35715;51.570;6.036;2023-03-23T14:02:32;100272.38;;;18.60;56.06
49827;BME280;35715;51.570;6.036;2023-03-23T14:05:45;100261.31;;;18.71;56.58
49827;BME280;35715;51.570;6.036;2023-03-23T14:10:20;100260.28;;;18.64;56.08
49827;BME280;35715;51.570;6.036;2023-03-23T14:12:45;100270.41;;;18.50;57.29
49827;BME280;35715;51.570;6.036;2023-03-23T14:15:12;100266.13;;;18.20;56.95
49827;BME280;35715;51.570;6.036;2023-03-23T14:17:41;100275.19;;;18.03;58.66
49827;BME280;35715;51.570;6.036;2023-03-23T14:22:47;100259.19;;;17.90;60.65
49827;BME280;35715;51.570;6.036;2023-03-23T14:25:18;100260.63;;;17.50;66.76
49827;BME280;35715;51.570;6.036;2023-03-23T14:27:45;100263.63;;;16.81;70.69
49827;BME280;35715;51.570;6.036;2023-03-23T14:30:23;100264.53;;;16.31;74.89
49827;BME280;35715;51.570;6.036;2023-03-23T14:32:50;100274.53;;;15.95;82.77
49827;BME280;35715;51.570;6.036;2023-03-23T14:35:26;100271.41;;;15.81;87.69
49827;BME280;35715;51.570;6.036;2023-03-23T14:37:52;100303.19;;;15.74;90.17
49827;BME280;35715;51.570;6.036;2023-03-23T14:40:18;100304.56;;;15.64;90.71
49827;BME280;35715;51.570;6.036;2023-03-23T14:42:44;100325.78;;;15.52;92.74
49827;BME280;35715;51.570;6.036;2023-03-23T14:45:11;100343.13;;;15.31;91.46
49827;BME280;35715;51.570;6.036;2023-03-23T14:47:39;100302.56;;;14.92;92.51
49827;BME280;35715;51.570;6.036;2023-03-23T14:50:21;100266.75;;;15.06;94.57